sensor_id;sensor_type;location;lat;lon;timestamp;pressure;altitude;pressure_sealevel;temperature;humidity
64679;BME280;51094;53.864;27.676;2024-02-28T00:00:00;99680.38;;;4.50;64.16
64679;BME280;51094;53.864;27.676;2024-02-28T00:02:34;99680.53;;;4.46;63.85
64679;BME280;51094;53.864;27.676;2024-02-28T00:05:05;99682.22;;;4.47;64.24
64679;BME280;51094;53.864;27.676;2024-02-28T00:07:33;99677.97;;;4.46;64.79
64679;BME280;51094;53.864;27.676;2024-02-28T00:10:04;99666.16;;;4.40;64.69
64679;BME280;51094;53.864;27.676;2024-02-28T00:12:32;99676.25;;;4.46;64.79
64679;BME280;51094;53.864;27.676;2024-02-28T00:15:06;99676.41;;;4.42;64.77
64679;BME280;51094;53.864;27.676;2024-02-28T00:17:39;99685.22;;;4.36;64.59
64679;BME280;51094;53.864;27.676;2024-02-28T00:20:10;99639.88;;;4.10;65.20
64679;BME280;51094;53.864;27.676;2024-02-28T00:22:41;99675.69;;;4.38;65.07
64679;BME280;51094;53.864;27.676;2024-02-28T00:25:15;99680.06;;;4.36;64.47
64679;BME280;51094;53.864;27.676;2024-02-28T00:27:45;99614.28;;;3.85;64.91
64679;BME280;51094;53.864;27.676;2024-02-28T00:30:13;99557.63;;;3.42;64.64
64679;BME280;51094;53.864;27.676;2024-02-28T00:32:40;99678.81;;;4.24;65.42
64679;BME280;51094;53.864;27.676;2024-02-28T00:35:12;99628.53;;;3.92;64.92
64679;BME280;51094;53.864;27.676;2024-02-28T00:37:43;99676.53;;;4.17;65.55
64679;BME280;51094;53.864;27.676;2024-02-28T00:40:12;99666.34;;;4.14;65.58
64679;BME280;51094;53.864;27.676;2024-02-28T00:42:47;99681.91;;;4.11;65.78
64679;BME280;51094;53.864;27.676;2024-02-28T00:45:17;99556.16;;;3.34;65.66
64679;BME280;51094;53.864;27.676;2024-02-28T00:47:51;99455.50;;;2.77;65.71
64679;BME280;51094;53.864;27.676;2024-02-28T00:50:21;99673.13;;;4.16;65.43
64679;BME280;51094;53.864;27.676;2024-02-28T00:53:06;99670.72;;;4.12;65.81
64679;BME280;51094;53.864;27.676;2024-02-28T00:55:36;99659.63;;;3.88;65.68
64679;BME280;51094;53.864;27.676;2024-02-28T00:58:11;99651.47;;;3.98;65.79
64679;BME280;51094;53.864;27.676;2024-02-28T01:00:43;99635.00;;;3.81;66.14
64679;BME280;51094;53.864;27.676;2024-02-28T01:03:17;99663.72;;;4.15;65.41
64679;BME280;51094;53.864;27.676;2024-02-28T01:05:49;99637.00;;;3.96;65.33
64679;BME280;51094;53.864;27.676;2024-02-28T01:08:19;99687.16;;;4.08;66.06
64679;BME280;51094;53.864;27.676;2024-02-28T01:10:55;99648.34;;;3.90;65.46
64679;BME280;51094;53.864;27.676;2024-02-28T01:13:29;99667.88;;;3.96;65.49
64679;BME280;51094;53.864;27.676;2024-02-28T01:16:06;99463.72;;;2.61;66.24
64679;BME280;51094;53.864;27.676;2024-02-28T01:18:38;99675.66;;;3.94;66.10
64679;BME280;51094;53.864;27.676;2024-02-28T01:21:11;99663.63;;;3.95;66.61
64679;BME280;51094;53.864;27.676;2024-02-28T01:23:45;99448.91;;;2.70;66.46
64679;BME280;51094;53.864;27.676;2024-02-28T01:26:25;99517.47;;;3.14;66.42
64679;BME280;51094;53.864;27.676;2024-02-28T01:29:03;99564.59;;;3.38;66.05
64679;BME280;51094;53.864;27.676;2024-02-28T01:31:42;99665.47;;;3.91;66.33
64679;BME280;51094;53.864;27.676;2024-02-28T01:34:20;99665.72;;;3.85;66.52
64679;BME280;51094;53.864;27.676;2024-02-28T01:36:55;99666.66;;;3.83;66.18
64679;BME280;51094;53.864;27.676;2024-02-28T01:39:27;99654.09;;;3.75;66.85
64679;BME280;51094;53.864;27.676;2024-02-28T01:41:55;99659.84;;;3.82;66.39
64679;BME280;51094;53.864;27.676;2024-02-28T01:44:27;99660.75;;;3.81;67.08
64679;BME280;51094;53.864;27.676;2024-02-28T01:46:55;99652.47;;;3.73;67.42
64679;BME280;51094;53.864;27.676;2024-02-28T01:49:28;99662.53;;;3.79;66.68
64679;BME280;51094;53.864;27.676;2024-02-28T01:52:01;99639.25;;;3.58;66.79
64679;BME280;51094;53.864;27.676;2024-02-28T01:54:35;99572.44;;;3.10;67.02
64679;BME280;51094;53.864;27.676;2024-02-28T01:57:10;99651.00;;;3.65;67.03
64679;BME280;51094;53.864;27.676;2024-02-28T01:59:42;99657.97;;;3.62;66.75
64679;BME280;51094;53.864;27.676;2024-02-28T02:02:16;99653.84;;;3.58;67.46
64679;BME280;51094;53.864;27.676;2024-02-28T02:04:48;99601.50;;;3.12;67.38
64679;BME280;51094;53.864;27.676;2024-02-28T02:07:33;99640.97;;;3.34;68.07
64679;BME280;51094;53.864;27.676;2024-02-28T02:10:15;99659.88;;;3.57;67.57
64679;BME280;51094;53.864;27.676;2024-02-28T02:12:42;99656.34;;;3.59;67.62
64679;BME280;51094;53.864;27.676;2024-02-28T02:15:20;99663.97;;;3.62;67.56
64679;BME280;51094;53.864;27.676;2024-02-28T02:17:53;99672.53;;;3.63;67.67
64679;BME280;51094;53.864;27.676;2024-02-28T02:20:32;99603.53;;;3.27;67.49
64679;BME280;51094;53.864;27.676;2024-02-28T02:23:06;99644.56;;;3.54;67.48
64679;BME280;51094;53.864;27.676;2024-02-28T02:25:47;99659.88;;;3.57;67.74
64679;BME280;51094;53.864;27.676;2024-02-28T02:28:17;99663.44;;;3.53;67.58
64679;BME280;51094;53.864;27.676;2024-02-28T02:30:57;99611.34;;;3.24;68.15
64679;BME280;51094;53.864;27.676;2024-02-28T02:33:30;99644.03;;;3.46;68.08
64679;BME280;51094;53.864;27.676;2024-02-28T02:36:06;99607.84;;;3.27;68.05
64679;BME280;51094;53.864;27.676;2024-02-28T02:38:39;99649.69;;;3.54;68.52
64679;BME280;51094;53.864;27.676;2024-02-28T02:41:10;99591.72;;;3.22;67.90
64679;BME280;51094;53.864;27.676;2024-02-28T02:43:37;99570.81;;;3.08;67.82
64679;BME280;51094;53.864;27.676;2024-02-28T02:46:04;99579.25;;;3.11;68.20
64679;BME280;51094;53.864;27.676;2024-02-28T02:48:32;99643.00;;;3.50;68.21
64679;BME280;51094;53.864;27.676;2024-02-28T02:51:04;99643.19;;;3.45;68.19
64679;BME280;51094;53.864;27.676;2024-02-28T02:53:33;99640.66;;;3.44;68.80
64679;BME280;51094;53.864;27.676;2024-02-28T02:56:06;99572.53;;;3.07;68.64
64679;BME280;51094;53.864;27.676;2024-02-28T02:58:38;99635.22;;;3.51;69.01
64679;BME280;51094;53.864;27.676;2024-02-28T03:01:08;99633.06;;;3.41;68.18
64679;BME280;51094;53.864;27.676;2024-02-28T03:03:46;99639.47;;;3.52;68.22
64679;BME280;51094;53.864;27.676;2024-02-28T03:06:13;99668.28;;;3.62;68.36
64679;BME280;51094;53.864;27.676;2024-02-28T03:08:40;99660.41;;;3.66;68.41
64679;BME280;51094;53.864;27.676;2024-02-28T03:11:07;99562.81;;;2.92;68.67
64679;BME280;51094;53.864;27.676;2024-02-28T03:13:35;99650.44;;;3.57;68.14
64679;BME280;51094;53.864;27.676;2024-02-28T03:16:05;99575.00;;;3.10;68.61
64679;BME280;51094;53.864;27.676;2024-02-28T03:18:33;99625.88;;;3.49;68.37
64679;BME280;51094;53.864;27.676;2024-02-28T03:21:00;99652.78;;;3.63;68.86
64679;BME280;51094;53.864;27.676;2024-02-28T03:23:27;99608.13;;;3.43;68.49
64679;BME280;51094;53.864;27.676;2024-02-28T03:25:54;99651.72;;;3.69;68.76
64679;BME280;51094;53.864;27.676;2024-02-28T03:28:24;99655.13;;;3.70;68.78
64679;BME280;51094;53.864;27.676;2024-02-28T03:30:51;99656.19;;;3.64;68.12
64679;BME280;51094;53.864;27.676;2024-02-28T03:33:19;99381.38;;;1.94;68.54
64679;BME280;51094;53.864;27.676;2024-02-28T03:35:46;99645.66;;;3.47;68.31
64679;BME280;51094;53.864;27.676;2024-02-28T03:38:13;99613.88;;;3.26;68.63
64679;BME280;51094;53.864;27.676;2024-02-28T03:40:40;99653.38;;;3.47;68.27
64679;BME280;51094;53.864;27.676;2024-02-28T03:43:07;99655.91;;;3.48;68.96
64679;BME280;51094;53.864;27.676;2024-02-28T03:45:37;99658.31;;;3.53;68.72
64679;BME280;51094;53.864;27.676;2024-02-28T03:48:11;99653.16;;;3.53;68.49
64679;BME280;51094;53.864;27.676;2024-02-28T03:50:38;99628.69;;;3.43;68.76
64679;BME280;51094;53.864;27.676;2024-02-28T03:53:08;99621.19;;;3.37;68.71
64679;BME280;51094;53.864;27.676;2024-02-28T03:55:35;99654.84;;;3.54;69.04
64679;BME280;51094;53.864;27.676;2024-02-28T03:58:02;99642.34;;;3.45;69.26
64679;BME280;51094;53.864;27.676;2024-02-28T04:00:29;99662.59;;;3.52;69.24
64679;BME280;51094;53.864;27.676;2024-02-28T04:02:57;99646.00;;;3.38;68.60
64679;BME280;51094;53.864;27.676;2024-02-28T04:05:23;99647.34;;;3.48;69.02
64679;BME280;51094;53.864;27.676;2024-02-28T04:07:50;99605.56;;;3.18;69.01
64679;BME280;51094;53.864;27.676;2024-02-28T04:10:20;99619.00;;;3.26;69.11
64679;BME280;51094;53.864;27.676;2024-02-28T04:12:48;99619.75;;;3.29;69.25
64679;BME280;51094;53.864;27.676;2024-02-28T04:15:16;99654.34;;;3.44;69.33
64679;BME280;51094;53.864;27.676;2024-02-28T04:17:43;99623.31;;;3.25;69.58
64679;BME280;51094;53.864;27.676;2024-02-28T04:20:13;99664.44;;;3.49;69.40
64679;BME280;51094;53.864;27.676;2024-02-28T04:22:40;99666.91;;;3.52;69.65
64679;BME280;51094;53.864;27.676;2024-02-28T04:25:08;99650.66;;;3.51;69.25
64679;BME280;51094;53.864;27.676;2024-02-28T04:27:36;99664.13;;;3.58;69.32
64679;BME280;51094;53.864;27.676;2024-02-28T04:30:05;99632.81;;;3.47;69.05
64679;BME280;51094;53.864;27.676;2024-02-28T04:32:33;99667.44;;;3.61;69.05
64679;BME280;51094;53.864;27.676;2024-02-28T04:35:02;99661.44;;;3.61;69.31
64679;BME280;51094;53.864;27.676;2024-02-28T04:37:30;99622.00;;;3.39;69.41
64679;BME280;51094;53.864;27.676;2024-02-28T04:39:57;99662.97;;;3.66;69.37
64679;BME280;51094;53.864;27.676;2024-02-28T04:42:24;99628.50;;;3.47;69.27
64679;BME280;51094;53.864;27.676;2024-02-28T04:44:51;99650.66;;;3.51;68.38
64679;BME280;51094;53.864;27.676;2024-02-28T04:47:18;99581.00;;;2.86;68.73
64679;BME280;51094;53.864;27.676;2024-02-28T04:49:55;99595.28;;;2.94;69.21
64679;BME280;51094;53.864;27.676;2024-02-28T04:52:22;99665.63;;;3.40;69.42
64679;BME280;51094;53.864;27.676;2024-02-28T04:54:50;99662.19;;;3.41;69.11
64679;BME280;51094;53.864;27.676;2024-02-28T04:57:23;99424.41;;;1.86;69.06
64679;BME280;51094;53.864;27.676;2024-02-28T04:59:50;99676.38;;;3.26;69.70
64679;BME280;51094;53.864;27.676;2024-02-28T05:02:20;99673.75;;;3.28;69.52
64679;BME280;51094;53.864;27.676;2024-02-28T05:04:53;99669.66;;;3.22;69.58
64679;BME280;51094;53.864;27.676;2024-02-28T05:07:20;99676.50;;;3.23;69.85
64679;BME280;51094;53.864;27.676;2024-02-28T05:09:47;99467.78;;;1.92;69.57
64679;BME280;51094;53.864;27.676;2024-02-28T05:12:19;99598.50;;;2.75;70.04
64679;BME280;51094;53.864;27.676;2024-02-28T05:14:46;99569.88;;;2.60;69.60
64679;BME280;51094;53.864;27.676;2024-02-28T05:17:24;99672.34;;;3.19;69.84
64679;BME280;51094;53.864;27.676;2024-02-28T05:19:51;99645.44;;;3.05;69.69
64679;BME280;51094;53.864;27.676;2024-02-28T05:22:18;99637.41;;;2.89;70.03
64679;BME280;51094;53.864;27.676;2024-02-28T05:24:46;99672.88;;;3.29;70.24
64679;BME280;51094;53.864;27.676;2024-02-28T05:27:13;99622.53;;;2.98;69.51
64679;BME280;51094;53.864;27.676;2024-02-28T05:29:42;99629.31;;;3.01;70.00
64679;BME280;51094;53.864;27.676;2024-02-28T05:32:11;99659.59;;;3.16;70.10
64679;BME280;51094;53.864;27.676;2024-02-28T05:34:39;99588.53;;;2.65;69.91
64679;BME280;51094;53.864;27.676;2024-02-28T05:37:08;99680.16;;;3.16;69.70
64679;BME280;51094;53.864;27.676;2024-02-28T05:39:38;99682.69;;;3.18;70.13
64679;BME280;51094;53.864;27.676;2024-02-28T05:42:05;99456.88;;;1.86;69.99
64679;BME280;51094;53.864;27.676;2024-02-28T05:44:32;99673.97;;;3.22;70.03
64679;BME280;51094;53.864;27.676;2024-02-28T05:47:04;99673.19;;;3.20;70.02
64679;BME280;51094;53.864;27.676;2024-02-28T05:49:31;99541.09;;;2.26;70.09
64679;BME280;51094;53.864;27.676;2024-02-28T05:51:58;99469.63;;;1.89;70.31
64679;BME280;51094;53.864;27.676;2024-02-28T05:54:25;99657.44;;;3.04;70.40
64679;BME280;51094;53.864;27.676;2024-02-28T05:56:56;99680.06;;;3.19;70.25
64679;BME280;51094;53.864;27.676;2024-02-28T05:59:25;99677.97;;;3.30;70.62
64679;BME280;51094;53.864;27.676;2024-02-28T06:01:53;99657.50;;;3.27;70.02
64679;BME280;51094;53.864;27.676;2024-02-28T06:04:20;99637.34;;;3.15;70.39
64679;BME280;51094;53.864;27.676;2024-02-28T06:06:47;99673.84;;;3.50;70.38
64679;BME280;51094;53.864;27.676;2024-02-28T06:09:16;99663.44;;;3.53;70.05
64679;BME280;51094;53.864;27.676;2024-02-28T06:11:43;99546.72;;;2.87;69.51
64679;BME280;51094;53.864;27.676;2024-02-28T06:14:10;99659.44;;;3.46;69.41
64679;BME280;51094;53.864;27.676;2024-02-28T06:16:39;99670.09;;;3.58;69.87
64679;BME280;51094;53.864;27.676;2024-02-28T06:19:06;99677.72;;;3.61;69.80
64679;BME280;51094;53.864;27.676;2024-02-28T06:21:33;99658.53;;;3.47;69.60
64679;BME280;51094;53.864;27.676;2024-02-28T06:24:00;99670.28;;;3.54;69.59
64679;BME280;51094;53.864;27.676;2024-02-28T06:26:27;99676.66;;;3.67;69.66
64679;BME280;51094;53.864;27.676;2024-02-28T06:28:54;99614.22;;;3.40;69.32
64679;BME280;51094;53.864;27.676;2024-02-28T06:31:28;99657.53;;;3.74;69.29
64679;BME280;51094;53.864;27.676;2024-02-28T06:33:58;99675.22;;;3.83;68.92
64679;BME280;51094;53.864;27.676;2024-02-28T06:36:25;99694.66;;;3.90;69.69
64679;BME280;51094;53.864;27.676;2024-02-28T06:38:52;99611.13;;;3.54;69.18
64679;BME280;51094;53.864;27.676;2024-02-28T06:41:19;99704.84;;;3.93;68.43
64679;BME280;51094;53.864;27.676;2024-02-28T06:43:46;99685.59;;;4.04;69.57
64679;BME280;51094;53.864;27.676;2024-02-28T06:46:13;99674.75;;;4.19;69.88
64679;BME280;51094;53.864;27.676;2024-02-28T06:48:44;99670.97;;;4.27;68.39
64679;BME280;51094;53.864;27.676;2024-02-28T06:51:16;99657.28;;;4.27;68.71
64679;BME280;51094;53.864;27.676;2024-02-28T06:53:44;99670.31;;;4.44;69.08
64679;BME280;51094;53.864;27.676;2024-02-28T06:56:11;99606.72;;;4.03;68.49
64679;BME280;51094;53.864;27.676;2024-02-28T06:58:38;99659.28;;;4.41;68.31
64679;BME280;51094;53.864;27.676;2024-02-28T07:01:08;99674.25;;;4.53;67.75
64679;BME280;51094;53.864;27.676;2024-02-28T07:03:40;99613.44;;;4.28;67.96
64679;BME280;51094;53.864;27.676;2024-02-28T07:06:07;99667.91;;;4.61;68.18
64679;BME280;51094;53.864;27.676;2024-02-28T07:08:34;99672.72;;;4.71;67.91
64679;BME280;51094;53.864;27.676;2024-02-28T07:11:03;99659.13;;;4.87;67.27
64679;BME280;51094;53.864;27.676;2024-02-28T07:13:30;99659.84;;;5.11;67.55
64679;BME280;51094;53.864;27.676;2024-02-28T07:15:57;99623.06;;;5.08;67.16
64679;BME280;51094;53.864;27.676;2024-02-28T07:18:25;99623.25;;;5.03;65.85
64679;BME280;51094;53.864;27.676;2024-02-28T07:20:52;99371.94;;;3.55;66.31
64679;BME280;51094;53.864;27.676;2024-02-28T07:23:19;99496.13;;;4.23;65.60
64679;BME280;51094;53.864;27.676;2024-02-28T07:25:49;99624.09;;;5.04;65.11
64679;BME280;51094;53.864;27.676;2024-02-28T07:28:16;99668.22;;;5.37;65.47
64679;BME280;51094;53.864;27.676;2024-02-28T07:30:43;99670.53;;;5.43;64.97
64679;BME280;51094;53.864;27.676;2024-02-28T07:33:12;99635.72;;;5.32;65.26
64679;BME280;51094;53.864;27.676;2024-02-28T07:35:51;99668.00;;;5.61;65.43
64679;BME280;51094;53.864;27.676;2024-02-28T07:38:18;99605.03;;;5.26;64.43
64679;BME280;51094;53.864;27.676;2024-02-28T07:40:49;99658.41;;;5.45;64.59
64679;BME280;51094;53.864;27.676;2024-02-28T07:43:16;99676.53;;;5.82;64.94
64679;BME280;51094;53.864;27.676;2024-02-28T07:45:44;99644.97;;;5.76;64.17
64679;BME280;51094;53.864;27.676;2024-02-28T07:48:11;99588.16;;;5.58;63.36
64679;BME280;51094;53.864;27.676;2024-02-28T07:50:39;99665.72;;;6.12;63.64
64679;BME280;51094;53.864;27.676;2024-02-28T07:53:08;99397.81;;;4.54;62.97
64679;BME280;51094;53.864;27.676;2024-02-28T07:55:35;99669.63;;;6.20;62.47
64679;BME280;51094;53.864;27.676;2024-02-28T07:58:05;99629.41;;;5.97;63.04
64679;BME280;51094;53.864;27.676;2024-02-28T08:00:36;99682.41;;;6.23;62.01
64679;BME280;51094;53.864;27.676;2024-02-28T08:03:03;99654.63;;;6.10;61.86
64679;BME280;51094;53.864;27.676;2024-02-28T08:05:30;99645.28;;;6.07;63.08
64679;BME280;51094;53.864;27.676;2024-02-28T08:08:08;99679.81;;;6.42;62.91
64679;BME280;51094;53.864;27.676;2024-02-28T08:10:42;99612.56;;;6.08;62.98
64679;BME280;51094;53.864;27.676;2024-02-28T08:13:14;99679.84;;;6.59;62.44
64679;BME280;51094;53.864;27.676;2024-02-28T08:15:43;99532.34;;;5.75;62.60
64679;BME280;51094;53.864;27.676;2024-02-28T08:18:11;99685.34;;;6.71;61.79
64679;BME280;51094;53.864;27.676;2024-02-28T08:20:39;99670.97;;;6.65;60.75
64679;BME280;51094;53.864;27.676;2024-02-28T08:23:14;99657.44;;;6.60;62.20
64679;BME280;51094;53.864;27.676;2024-02-28T08:25:45;99520.84;;;6.00;61.28
64679;BME280;51094;53.864;27.676;2024-02-28T08:28:15;99617.69;;;6.62;61.14
64679;BME280;51094;53.864;27.676;2024-02-28T08:30:42;99662.78;;;7.09;60.75
64679;BME280;51094;53.864;27.676;2024-02-28T08:33:15;99628.03;;;6.97;60.66
64679;BME280;51094;53.864;27.676;2024-02-28T08:35:45;99664.97;;;7.16;60.45
64679;BME280;51094;53.864;27.676;2024-02-28T08:38:13;99589.13;;;6.83;60.81
64679;BME280;51094;53.864;27.676;2024-02-28T08:40:40;99572.31;;;6.91;61.08
64679;BME280;51094;53.864;27.676;2024-02-28T08:43:08;99632.84;;;7.38;59.73
64679;BME280;51094;53.864;27.676;2024-02-28T08:45:35;99644.19;;;7.68;59.81
64679;BME280;51094;53.864;27.676;2024-02-28T08:48:07;99649.53;;;7.81;59.42
64679;BME280;51094;53.864;27.676;2024-02-28T08:50:38;99647.41;;;8.05;59.95
64679;BME280;51094;53.864;27.676;2024-02-28T08:53:05;99615.91;;;7.96;58.87
64679;BME280;51094;53.864;27.676;2024-02-28T08:55:32;99643.63;;;8.26;60.20
64679;BME280;51094;53.864;27.676;2024-02-28T08:58:03;99644.81;;;8.36;58.92
64679;BME280;51094;53.864;27.676;2024-02-28T09:00:30;99517.78;;;7.76;57.75
64679;BME280;51094;53.864;27.676;2024-02-28T09:02:58;99643.81;;;8.54;56.61
64679;BME280;51094;53.864;27.676;2024-02-28T09:05:25;99633.63;;;8.36;56.71
64679;BME280;51094;53.864;27.676;2024-02-28T09:07:52;99571.28;;;8.07;56.86
64679;BME280;51094;53.864;27.676;2024-02-28T09:10:22;99639.59;;;8.67;56.56
64679;BME280;51094;53.864;27.676;2024-02-28T09:12:52;99631.19;;;8.78;56.49
64679;BME280;51094;53.864;27.676;2024-02-28T09:15:19;99615.31;;;8.68;56.24
64679;BME280;51094;53.864;27.676;2024-02-28T09:17:46;99648.16;;;8.84;56.20
64679;BME280;51094;53.864;27.676;2024-02-28T09:20:14;99632.88;;;8.79;56.16
64679;BME280;51094;53.864;27.676;2024-02-28T09:22:42;99633.88;;;8.77;56.19
64679;BME280;51094;53.864;27.676;2024-02-28T09:25:09;99629.13;;;8.69;55.63
64679;BME280;51094;53.864;27.676;2024-02-28T09:27:37;99631.09;;;8.65;56.13
64679;BME280;51094;53.864;27.676;2024-02-28T09:30:05;99640.75;;;8.78;56.96
64679;BME280;51094;53.864;27.676;2024-02-28T09:32:32;99635.78;;;8.89;56.47
64679;BME280;51094;53.864;27.676;2024-02-28T09:34:59;99489.16;;;8.09;56.60
64679;BME280;51094;53.864;27.676;2024-02-28T09:37:29;99640.44;;;9.12;56.83
64679;BME280;51094;53.864;27.676;2024-02-28T09:39:58;99554.06;;;8.82;56.09
64679;BME280;51094;53.864;27.676;2024-02-28T09:42:29;99635.78;;;9.47;55.26
64679;BME280;51094;53.864;27.676;2024-02-28T09:45:00;99643.63;;;9.60;55.44
64679;BME280;51094;53.864;27.676;2024-02-28T09:47:28;99634.88;;;10.04;55.66
64679;BME280;51094;53.864;27.676;2024-02-28T09:49:58;99618.19;;;10.22;54.76
64679;BME280;51094;53.864;27.676;2024-02-28T09:52:28;99604.78;;;10.28;54.11
64679;BME280;51094;53.864;27.676;2024-02-28T09:54:55;99595.13;;;10.30;52.67
64679;BME280;51094;53.864;27.676;2024-02-28T09:57:23;99534.47;;;9.76;52.48
64679;BME280;51094;53.864;27.676;2024-02-28T10:00:03;99595.53;;;10.24;53.47
64679;BME280;51094;53.864;27.676;2024-02-28T10:02:32;99618.84;;;10.65;53.26
64679;BME280;51094;53.864;27.676;2024-02-28T10:05:01;99608.28;;;10.81;52.24
64679;BME280;51094;53.864;27.676;2024-02-28T10:07:32;99608.41;;;11.05;52.26
64679;BME280;51094;53.864;27.676;2024-02-28T10:09:59;99591.44;;;10.99;51.19
64679;BME280;51094;53.864;27.676;2024-02-28T10:12:27;99558.63;;;10.84;50.00
64679;BME280;51094;53.864;27.676;2024-02-28T10:15:02;99579.44;;;10.84;50.96
64679;BME280;51094;53.864;27.676;2024-02-28T10:17:32;99578.81;;;10.68;50.13
64679;BME280;51094;53.864;27.676;2024-02-28T10:19:59;99598.50;;;10.97;51.69
64679;BME280;51094;53.864;27.676;2024-02-28T10:22:26;99586.75;;;11.29;50.60
64679;BME280;51094;53.864;27.676;2024-02-28T10:24:58;99591.53;;;11.36;49.55
64679;BME280;51094;53.864;27.676;2024-02-28T10:27:26;99600.78;;;11.52;49.36
64679;BME280;51094;53.864;27.676;2024-02-28T10:29:53;99587.41;;;11.95;49.18
64679;BME280;51094;53.864;27.676;2024-02-28T10:32:20;99595.09;;;12.20;48.81
64679;BME280;51094;53.864;27.676;2024-02-28T10:34:48;99529.28;;;12.06;48.12
64679;BME280;51094;53.864;27.676;2024-02-28T10:37:16;99401.31;;;11.50;48.16
64679;BME280;51094;53.864;27.676;2024-02-28T10:39:44;99583.13;;;12.77;48.55
64679;BME280;51094;53.864;27.676;2024-02-28T10:42:12;99580.63;;;12.75;47.03
64679;BME280;51094;53.864;27.676;2024-02-28T10:44:42;99550.00;;;12.55;46.17
64679;BME280;51094;53.864;27.676;2024-02-28T10:47:11;99547.03;;;12.59;46.85
64679;BME280;51094;53.864;27.676;2024-02-28T10:49:41;99546.69;;;12.53;46.92
64679;BME280;51094;53.864;27.676;2024-02-28T10:52:11;99571.09;;;12.63;47.30
64679;BME280;51094;53.864;27.676;2024-02-28T10:54:40;99566.47;;;12.55;46.45
64679;BME280;51094;53.864;27.676;2024-02-28T10:57:12;99541.19;;;12.45;47.03
64679;BME280;51094;53.864;27.676;2024-02-28T10:59:42;99568.38;;;12.64;46.82
64679;BME280;51094;53.864;27.676;2024-02-28T11:02:16;99501.47;;;12.41;47.55
64679;BME280;51094;53.864;27.676;2024-02-28T11:04:43;99488.72;;;12.72;46.68
64679;BME280;51094;53.864;27.676;2024-02-28T11:07:20;99559.16;;;13.29;46.34
64679;BME280;51094;53.864;27.676;2024-02-28T11:09:54;99559.16;;;13.29;45.20
64679;BME280;51094;53.864;27.676;2024-02-28T11:12:26;99497.19;;;12.97;46.55
64679;BME280;51094;53.864;27.676;2024-02-28T11:15:02;99579.00;;;13.65;45.98
64679;BME280;51094;53.864;27.676;2024-02-28T11:17:30;99509.41;;;13.53;45.57
64679;BME280;51094;53.864;27.676;2024-02-28T11:19:58;99513.34;;;13.90;45.00
64679;BME280;51094;53.864;27.676;2024-02-28T11:22:28;99481.69;;;14.05;43.09
64679;BME280;51094;53.864;27.676;2024-02-28T11:25:01;99331.09;;;13.40;42.97
64679;BME280;51094;53.864;27.676;2024-02-28T11:27:28;99479.19;;;14.35;41.55
64679;BME280;51094;53.864;27.676;2024-02-28T11:29:55;99538.50;;;14.87;42.71
64679;BME280;51094;53.864;27.676;2024-02-28T11:32:25;99530.72;;;14.97;42.37
64679;BME280;51094;53.864;27.676;2024-02-28T11:34:52;99535.75;;;15.10;42.84
64679;BME280;51094;53.864;27.676;2024-02-28T11:37:21;99511.47;;;15.08;42.19
64679;BME280;51094;53.864;27.676;2024-02-28T11:39:48;99481.72;;;15.09;43.03
64679;BME280;51094;53.864;27.676;2024-02-28T11:42:16;99494.91;;;15.38;42.02
64679;BME280;51094;53.864;27.676;2024-02-28T11:44:43;99468.22;;;15.13;40.52
64679;BME280;51094;53.864;27.676;2024-02-28T11:47:23;99515.84;;;15.68;40.46
64679;BME280;51094;53.864;27.676;2024-02-28T11:49:52;99479.53;;;15.63;39.68
64679;BME280;51094;53.864;27.676;2024-02-28T11:52:22;99508.00;;;15.78;40.56
64679;BME280;51094;53.864;27.676;2024-02-28T11:54:50;99504.31;;;16.00;41.39
64679;BME280;51094;53.864;27.676;2024-02-28T11:57:17;99515.09;;;16.35;40.72
64679;BME280;51094;53.864;27.676;2024-02-28T11:59:44;99507.50;;;16.32;39.53
64679;BME280;51094;53.864;27.676;2024-02-28T12:02:15;99509.84;;;16.45;39.45
64679;BME280;51094;53.864;27.676;2024-02-28T12:04:43;99513.44;;;16.34;38.80
64679;BME280;51094;53.864;27.676;2024-02-28T12:07:11;99493.81;;;16.38;39.78
64679;BME280;51094;53.864;27.676;2024-02-28T12:09:41;99515.34;;;16.80;37.30
64679;BME280;51094;53.864;27.676;2024-02-28T12:12:12;99500.53;;;16.89;37.70
64679;BME280;51094;53.864;27.676;2024-02-28T12:14:48;99499.03;;;16.77;38.09
64679;BME280;51094;53.864;27.676;2024-02-28T12:17:25;99534.00;;;16.68;38.37
64679;BME280;51094;53.864;27.676;2024-02-28T12:19:54;99498.34;;;16.65;37.45
64679;BME280;51094;53.864;27.676;2024-02-28T12:22:28;99482.03;;;16.52;37.64
64679;BME280;51094;53.864;27.676;2024-02-28T12:24:59;99492.41;;;16.53;37.39
64679;BME280;51094;53.864;27.676;2024-02-28T12:27:39;99463.56;;;15.57;38.11
64679;BME280;51094;53.864;27.676;2024-02-28T12:30:08;99489.19;;;15.23;39.26
64679;BME280;51094;53.864;27.676;2024-02-28T12:32:38;99452.38;;;14.84;39.90
64679;BME280;51094;53.864;27.676;2024-02-28T12:35:17;99499.41;;;14.65;40.17
64679;BME280;51094;53.864;27.676;2024-02-28T12:37:50;99464.56;;;14.12;41.33
64679;BME280;51094;53.864;27.676;2024-02-28T12:40:23;99516.63;;;14.15;41.75
64679;BME280;51094;53.864;27.676;2024-02-28T12:43:02;99488.69;;;13.83;41.50
64679;BME280;51094;53.864;27.676;2024-02-28T12:45:36;99368.69;;;12.83;42.07
64679;BME280;51094;53.864;27.676;2024-02-28T12:48:11;99450.09;;;13.21;42.01
64679;BME280;51094;53.864;27.676;2024-02-28T12:50:46;99525.94;;;13.42;42.45
64679;BME280;51094;53.864;27.676;2024-02-28T12:53:13;99493.16;;;13.27;43.07
64679;BME280;51094;53.864;27.676;2024-02-28T12:55:42;99487.47;;;13.33;43.16
64679;BME280;51094;53.864;27.676;2024-02-28T12:58:11;99489.38;;;13.42;42.64
64679;BME280;51094;53.864;27.676;2024-02-28T13:00:38;99513.13;;;14.25;41.90
64679;BME280;51094;53.864;27.676;2024-02-28T13:03:06;99456.50;;;14.87;41.07
64679;BME280;51094;53.864;27.676;2024-02-28T13:05:38;99478.56;;;15.55;40.57
64679;BME280;51094;53.864;27.676;2024-02-28T13:08:16;99484.13;;;16.10;38.63
64679;BME280;51094;53.864;27.676;2024-02-28T13:10:47;99489.66;;;16.26;38.55